createdAt,value
2023-03-28T00:00:52.970Z,1.40
2023-03-28T00:03:22.577Z,1.40
2023-03-28T00:05:55.518Z,1.50
2023-03-28T00:08:23.764Z,1.67
2023-03-28T00:10:52.166Z,1.33
2023-03-28T00:13:21.316Z,1.37
2023-03-28T00:15:52.847Z,2.23
2023-03-28T00:18:22.492Z,1.53
2023-03-28T00:20:53.542Z,1.33
2023-03-28T00:23:21.710Z,1.47
2023-03-28T00:25:49.905Z,1.60
2023-03-28T00:28:18.084Z,1.30
2023-03-28T00:30:46.313Z,1.57
2023-03-28T00:33:14.502Z,1.50
2023-03-28T00:35:44.081Z,1.43
2023-03-28T00:38:13.842Z,1.43
2023-03-28T00:40:42.092Z,1.50
2023-03-28T00:43:14.243Z,2.10
2023-03-28T00:45:43.206Z,1.70
2023-03-28T00:48:15.360Z,2.00
2023-03-28T00:50:48.578Z,1.50
2023-03-28T00:53:18.631Z,1.20
2023-03-28T00:55:48.471Z,1.30
2023-03-28T00:58:18.405Z,1.60
2023-03-28T01:00:47.366Z,1.60
2023-03-28T01:03:16.049Z,1.17
2023-03-28T01:05:47.620Z,1.23
2023-03-28T01:08:17.387Z,1.20
2023-03-28T01:10:46.273Z,1.17
2023-03-28T01:13:15.891Z,1.30
2023-03-28T01:15:45.283Z,1.20
2023-03-28T01:18:16.301Z,1.50
2023-03-28T01:20:56.862Z,1.43
2023-03-28T01:23:38.185Z,1.23
2023-03-28T01:26:21.259Z,1.43
2023-03-28T01:29:01.138Z,1.20
2023-03-28T01:31:44.254Z,1.70
2023-03-28T01:34:26.632Z,1.20
2023-03-28T01:37:01.565Z,1.40
2023-03-28T01:39:35.563Z,1.33
2023-03-28T01:42:08.514Z,1.40
2023-03-28T01:44:40.359Z,1.50
2023-03-28T01:47:12.713Z,1.20
2023-03-28T01:49:44.498Z,1.60
2023-03-28T01:52:19.705Z,1.20
2023-03-28T01:54:53.635Z,1.70
2023-03-28T01:57:24.996Z,1.47
2023-03-28T01:59:56.433Z,1.40
2023-03-28T02:02:28.410Z,1.80
2023-03-28T02:04:57.936Z,1.70
2023-03-28T02:07:28.814Z,1.20
2023-03-28T02:09:57.899Z,1.30
2023-03-28T02:12:28.604Z,1.70
2023-03-28T02:14:58.362Z,1.90
2023-03-28T02:17:28.900Z,1.47
2023-03-28T02:19:59.816Z,1.77
2023-03-28T02:22:32.557Z,2.27
2023-03-28T02:25:00.955Z,1.70
2023-03-28T02:27:29.487Z,1.80
2023-03-28T02:29:57.924Z,1.70
2023-03-28T02:32:33.806Z,1.67
2023-03-28T02:35:02.723Z,1.70
2023-03-28T02:37:38.014Z,1.63
2023-03-28T02:40:14.673Z,1.50
2023-03-28T02:43:02.422Z,1.80
2023-03-28T02:45:45.474Z,1.60
2023-03-28T02:48:21.251Z,1.70
2023-03-28T02:50:53.505Z,1.73
2023-03-28T02:53:27.989Z,1.53
2023-03-28T02:55:59.026Z,1.80
2023-03-28T02:58:30.237Z,2.37
2023-03-28T03:00:58.549Z,1.13
2023-03-28T03:03:26.751Z,1.30
2023-03-28T03:05:54.902Z,1.60
2023-03-28T03:08:24.451Z,1.47
2023-03-28T03:10:52.602Z,1.60
2023-03-28T03:13:20.821Z,1.60
2023-03-28T03:15:49.363Z,1.70
2023-03-28T03:18:17.901Z,1.80
2023-03-28T03:20:46.182Z,1.70
2023-03-28T03:23:14.618Z,1.77
2023-03-28T03:25:45.375Z,1.60
2023-03-28T03:28:13.939Z,1.80
2023-03-28T03:30:42.151Z,1.50
2023-03-28T03:33:10.652Z,1.70
2023-03-28T03:35:42.067Z,2.10
2023-03-28T03:38:10.725Z,1.90
2023-03-28T03:40:38.961Z,1.60
2023-03-28T03:43:08.468Z,2.10
2023-03-28T03:45:37.874Z,1.60
2023-03-28T03:48:06.353Z,1.70
2023-03-28T03:50:34.602Z,1.70
2023-03-28T03:53:02.802Z,1.67
2023-03-28T03:55:32.456Z,1.53
2023-03-28T03:58:01.450Z,1.50
2023-03-28T04:00:30.995Z,1.70
2023-03-28T04:02:59.240Z,1.47
2023-03-28T04:05:27.444Z,2.23
2023-03-28T04:07:57.537Z,1.67
2023-03-28T04:10:25.731Z,1.70
2023-03-28T04:12:53.946Z,1.60
2023-03-28T04:15:22.143Z,1.60
2023-03-28T04:17:52.719Z,2.03
2023-03-28T04:20:21.026Z,1.50
2023-03-28T04:22:50.363Z,1.43
2023-03-28T04:25:18.748Z,2.23
2023-03-28T04:27:48.879Z,1.60
2023-03-28T04:30:18.014Z,1.53
2023-03-28T04:32:49.328Z,1.87
2023-03-28T04:35:18.944Z,1.97
2023-03-28T04:37:47.413Z,1.57
2023-03-28T04:40:17.727Z,1.50
2023-03-28T04:42:46.747Z,1.73
2023-03-28T04:45:17.660Z,1.70
2023-03-28T04:47:46.393Z,2.03
2023-03-28T04:50:14.690Z,2.00
2023-03-28T04:52:44.226Z,2.30
2023-03-28T04:55:12.397Z,2.07
2023-03-28T04:57:40.829Z,2.07
2023-03-28T05:00:10.721Z,2.00
2023-03-28T05:02:39.001Z,1.50
2023-03-28T05:05:07.864Z,1.93
2023-03-28T05:07:36.747Z,2.43
2023-03-28T05:10:07.577Z,2.17
2023-03-28T05:12:35.965Z,1.80
2023-03-28T05:15:04.187Z,1.93
2023-03-28T05:17:32.367Z,2.10
2023-03-28T05:20:00.569Z,1.77
2023-03-28T05:22:28.714Z,1.70
2023-03-28T05:24:56.924Z,2.10
2023-03-28T05:27:26.524Z,1.90
2023-03-28T05:29:54.668Z,2.00
2023-03-28T05:32:22.848Z,1.93
2023-03-28T05:34:51.130Z,2.23
2023-03-28T05:37:19.419Z,2.13
2023-03-28T05:39:47.689Z,2.40
2023-03-28T05:42:15.936Z,2.70
2023-03-28T05:44:45.575Z,2.10
2023-03-28T05:47:13.743Z,2.10
2023-03-28T05:49:42.064Z,2.40
2023-03-28T05:52:10.309Z,2.30
2023-03-28T05:54:38.490Z,2.20
2023-03-28T05:57:06.696Z,2.40
2023-03-28T05:59:35.052Z,2.60
2023-03-28T06:02:04.563Z,2.40
2023-03-28T06:04:32.777Z,2.17
2023-03-28T06:07:03.196Z,2.73
2023-03-28T06:09:31.594Z,2.47
2023-03-28T06:12:00.139Z,2.60
2023-03-28T06:14:28.391Z,2.57
2023-03-28T06:16:56.696Z,2.30
2023-03-28T06:19:26.484Z,2.63
2023-03-28T06:21:54.839Z,2.07
2023-03-28T06:24:23.060Z,2.53
2023-03-28T06:26:51.533Z,2.07
2023-03-28T06:29:20.663Z,2.57
2023-03-28T06:31:48.980Z,2.70
2023-03-28T06:34:17.424Z,2.13
2023-03-28T06:36:46.928Z,2.40
2023-03-28T06:39:15.285Z,2.30
2023-03-28T06:41:44.479Z,2.37
2023-03-28T06:44:12.723Z,2.37
2023-03-28T06:46:41.156Z,2.30
2023-03-28T06:49:09.401Z,2.60
2023-03-28T06:51:37.585Z,2.13
2023-03-28T06:54:07.196Z,2.53
2023-03-28T06:56:35.440Z,2.50
2023-03-28T06:59:03.674Z,2.53
2023-03-28T07:01:32.067Z,2.70
2023-03-28T07:04:00.806Z,2.40
2023-03-28T07:06:29.416Z,2.60
2023-03-28T07:08:58.954Z,2.57
2023-03-28T07:11:28.525Z,2.80
2023-03-28T07:13:56.698Z,2.57
2023-03-28T07:16:25.016Z,2.43
2023-03-28T07:18:53.242Z,2.90
2023-03-28T07:21:22.639Z,3.00
2023-03-28T07:23:50.889Z,2.77
2023-03-28T07:26:19.038Z,3.30
2023-03-28T07:28:49.256Z,2.93
2023-03-28T07:31:18.326Z,3.40
2023-03-28T07:33:46.582Z,3.30
2023-03-28T07:36:16.129Z,3.50
2023-03-28T07:38:46.545Z,2.93
2023-03-28T07:41:16.373Z,3.57
2023-03-28T07:43:44.513Z,3.57
2023-03-28T07:46:15.155Z,3.57
2023-03-28T07:48:43.893Z,3.17
2023-03-28T07:51:12.916Z,3.43
2023-03-28T07:53:41.219Z,3.23
2023-03-28T07:56:11.683Z,3.70
2023-03-28T07:58:40.815Z,3.10
2023-03-28T08:01:09.722Z,3.10
2023-03-28T08:03:39.560Z,2.87
2023-03-28T08:06:20.065Z,2.67
2023-03-28T08:08:52.941Z,3.23
2023-03-28T08:11:21.616Z,2.53
2023-03-28T08:13:49.821Z,2.30
2023-03-28T08:16:18.103Z,2.83
2023-03-28T08:18:56.992Z,2.50
2023-03-28T08:21:32.130Z,2.57
2023-03-28T08:24:00.447Z,2.00
2023-03-28T08:26:28.851Z,2.10
2023-03-28T08:28:58.752Z,2.00
2023-03-28T08:31:27.907Z,2.20
2023-03-28T08:33:57.978Z,2.40
2023-03-28T08:36:27.362Z,2.30
2023-03-28T08:39:00.505Z,2.37
2023-03-28T08:41:40.581Z,2.50
2023-03-28T08:44:18.132Z,2.70
2023-03-28T08:46:47.024Z,3.33
2023-03-28T08:49:18.528Z,3.53
2023-03-28T08:51:48.460Z,3.70
2023-03-28T08:54:19.099Z,3.53
2023-03-28T08:56:48.464Z,3.13
2023-03-28T08:59:17.694Z,3.30
2023-03-28T09:01:47.149Z,2.80
2023-03-28T09:04:21.857Z,3.37
2023-03-28T09:06:51.116Z,3.40
2023-03-28T09:09:32.282Z,3.23
2023-03-28T09:12:05.881Z,3.40
2023-03-28T09:14:52.325Z,2.90
2023-03-28T09:17:25.599Z,2.57
2023-03-28T09:19:59.838Z,2.70
2023-03-28T09:22:35.259Z,2.20
2023-03-28T09:25:18.532Z,2.23
2023-03-28T09:27:51.054Z,2.63
2023-03-28T09:30:20.669Z,2.47
2023-03-28T09:32:49.444Z,2.03
2023-03-28T09:35:20.278Z,2.57
2023-03-28T09:37:50.844Z,2.47
2023-03-28T09:40:20.893Z,2.30
2023-03-28T09:42:53.868Z,2.10
2023-03-28T09:45:35.042Z,2.20
2023-03-28T09:48:03.596Z,2.57
2023-03-28T09:50:33.388Z,2.27
2023-03-28T09:53:01.543Z,2.43
2023-03-28T09:55:31.414Z,2.30
2023-03-28T09:58:03.744Z,2.10
2023-03-28T10:00:35.921Z,1.83
2023-03-28T10:03:04.384Z,2.50
2023-03-28T10:05:35.641Z,1.90
2023-03-28T10:08:07.477Z,2.40
2023-03-28T10:10:35.732Z,2.07
2023-03-28T10:13:05.707Z,2.10
2023-03-28T10:15:35.676Z,2.20
2023-03-28T10:18:05.881Z,1.90
2023-03-28T10:20:36.871Z,2.27
2023-03-28T10:23:06.162Z,1.80
2023-03-28T10:25:37.906Z,1.80
2023-03-28T10:28:08.043Z,2.00
2023-03-28T10:30:37.518Z,1.90
2023-03-28T10:33:10.235Z,2.03
2023-03-28T10:35:41.580Z,1.80
2023-03-28T10:38:16.311Z,1.60
2023-03-28T10:40:44.559Z,1.57
2023-03-28T10:43:13.868Z,2.17
2023-03-28T10:45:43.534Z,2.30
2023-03-28T10:48:13.823Z,2.40
2023-03-28T10:50:45.427Z,2.70
2023-03-28T10:53:23.812Z,2.47
2023-03-28T10:56:00.039Z,2.83
2023-03-28T10:58:30.290Z,2.90
2023-03-28T11:01:02.822Z,3.10
2023-03-28T11:03:36.749Z,3.10
2023-03-28T11:06:10.307Z,3.40
2023-03-28T11:08:43.516Z,3.00
2023-03-28T11:11:16.638Z,2.87
2023-03-28T11:13:49.634Z,3.37
2023-03-28T11:16:22.880Z,3.77
2023-03-28T11:19:01.140Z,3.63
2023-03-28T11:21:33.623Z,3.90
2023-03-28T11:24:07.119Z,4.47
2023-03-28T11:26:41.905Z,3.90
2023-03-28T11:29:33.100Z,3.37
2023-03-28T11:32:10.533Z,3.40
2023-03-28T11:34:42.829Z,3.43
2023-03-28T11:37:17.569Z,3.20
2023-03-28T11:39:49.435Z,3.70
2023-03-28T11:42:21.378Z,3.70
2023-03-28T11:44:53.452Z,3.83
2023-03-28T11:47:24.105Z,2.93
2023-03-28T11:49:54.513Z,3.00
2023-03-28T11:52:25.654Z,2.50
2023-03-28T11:54:59.419Z,2.50
2023-03-28T11:57:29.852Z,2.57
2023-03-28T12:00:04.786Z,2.50
2023-03-28T12:02:39.279Z,1.80
2023-03-28T12:05:10.312Z,1.60
2023-03-28T12:07:43.152Z,2.43
2023-03-28T12:10:20.549Z,2.50
2023-03-28T12:12:56.366Z,2.30
2023-03-28T12:15:29.293Z,2.40
2023-03-28T12:17:59.080Z,2.20
2023-03-28T12:20:29.879Z,2.23
2023-03-28T12:23:03.351Z,2.20
2023-03-28T12:25:35.175Z,2.20
2023-03-28T12:28:10.152Z,2.50
2023-03-28T12:30:43.008Z,2.17
2023-03-28T12:33:17.247Z,1.87
2023-03-28T12:35:50.056Z,2.07
2023-03-28T12:38:30.874Z,2.43
2023-03-28T12:41:01.740Z,2.10
2023-03-28T12:43:32.560Z,2.20
2023-03-28T12:46:02.396Z,2.30
2023-03-28T12:48:35.852Z,2.27
2023-03-28T12:51:07.522Z,2.57
2023-03-28T12:53:42.210Z,2.07
2023-03-28T12:56:11.974Z,2.40
2023-03-28T12:58:40.233Z,2.00
2023-03-28T13:01:23.897Z,2.03
2023-03-28T13:03:59.313Z,2.63
2023-03-28T13:06:32.792Z,2.27
2023-03-28T13:09:09.472Z,2.17
2023-03-28T13:11:41.076Z,2.53
2023-03-28T13:14:17.938Z,2.30
2023-03-28T13:16:47.878Z,2.60
2023-03-28T13:19:18.720Z,2.37
2023-03-28T13:21:49.463Z,2.53
2023-03-28T13:24:33.388Z,2.80
2023-03-28T13:27:02.446Z,2.60
2023-03-28T13:29:45.090Z,2.50
2023-03-28T13:32:15.266Z,2.60
2023-03-28T13:34:48.244Z,2.40
2023-03-28T13:37:22.933Z,2.53
2023-03-28T13:39:53.426Z,2.90
2023-03-28T13:42:28.906Z,2.67
2023-03-28T13:44:59.438Z,2.67
2023-03-28T13:47:29.609Z,2.87
2023-03-28T13:50:01.815Z,3.00
2023-03-28T13:52:30.055Z,2.77
2023-03-28T13:55:15.476Z,2.80
2023-03-28T13:57:43.751Z,3.00
2023-03-28T14:00:16.249Z,3.10
2023-03-28T14:02:46.691Z,2.83
2023-03-28T14:05:16.919Z,2.80
2023-03-28T14:07:45.206Z,3.00
2023-03-28T14:10:29.593Z,2.97
2023-03-28T14:12:59.425Z,3.20
2023-03-28T14:15:30.530Z,3.00
2023-03-28T14:18:00.707Z,2.90
2023-03-28T14:20:30.171Z,3.60
2023-03-28T14:23:01.548Z,3.53
2023-03-28T14:25:31.857Z,3.00
2023-03-28T14:28:08.480Z,3.00
2023-03-28T14:30:40.046Z,3.03
2023-03-28T14:33:16.266Z,2.97
2023-03-28T14:35:45.512Z,3.20
2023-03-28T14:38:14.901Z,3.20
2023-03-28T14:40:45.638Z,3.33
2023-03-28T14:43:21.335Z,3.07
2023-03-28T14:45:54.128Z,2.90
2023-03-28T14:48:24.389Z,3.43
2023-03-28T14:50:53.631Z,3.40
2023-03-28T14:53:24.157Z,3.17
2023-03-28T14:55:54.760Z,3.60
2023-03-28T14:58:23.988Z,3.40
2023-03-28T15:00:53.390Z,3.30
2023-03-28T15:03:25.286Z,3.47
2023-03-28T15:05:54.509Z,3.80
2023-03-28T15:08:26.376Z,3.30
2023-03-28T15:10:56.916Z,3.33
2023-03-28T15:13:26.605Z,3.20
2023-03-28T15:15:56.886Z,3.43
2023-03-28T15:18:28.463Z,3.40
2023-03-28T15:20:58.517Z,3.50
2023-03-28T15:23:29.137Z,3.73
2023-03-28T15:26:01.154Z,4.10
2023-03-28T15:28:29.837Z,3.80
2023-03-28T15:31:00.348Z,3.90
2023-03-28T15:33:28.815Z,3.63
2023-03-28T15:36:06.786Z,3.87
2023-03-28T15:38:38.741Z,4.20
2023-03-28T15:41:12.441Z,4.33
2023-03-28T15:43:41.326Z,3.77
2023-03-28T15:46:13.916Z,4.30
2023-03-28T15:48:43.225Z,4.10
2023-03-28T15:51:14.709Z,4.10
2023-03-28T15:53:43.148Z,4.30
2023-03-28T15:56:16.974Z,4.90
2023-03-28T15:58:46.173Z,3.90
2023-03-28T16:01:22.267Z,4.47
2023-03-28T16:03:50.876Z,4.23
2023-03-28T16:06:31.553Z,4.07
2023-03-28T16:09:13.710Z,3.87
2023-03-28T16:11:43.229Z,3.67
2023-03-28T16:14:14.094Z,3.73
2023-03-28T16:16:42.442Z,3.63
2023-03-28T16:19:13.469Z,3.27
2023-03-28T16:21:41.877Z,4.23
2023-03-28T16:24:10.017Z,3.97
2023-03-28T16:26:38.186Z,4.23
2023-03-28T16:29:07.986Z,4.00
2023-03-28T16:31:36.237Z,4.50
2023-03-28T16:34:06.026Z,3.83
2023-03-28T16:36:35.272Z,3.83
2023-03-28T16:39:05.151Z,4.80
2023-03-28T16:41:33.474Z,4.13
2023-03-28T16:44:01.836Z,4.57
2023-03-28T16:46:31.827Z,4.10
2023-03-28T16:49:00.206Z,4.57
2023-03-28T16:51:28.374Z,4.30
2023-03-28T16:53:56.528Z,4.83
2023-03-28T16:56:26.813Z,4.63
2023-03-28T16:58:55.105Z,4.60
2023-03-28T17:01:23.525Z,5.43
2023-03-28T17:03:53.923Z,4.90
2023-03-28T17:06:22.144Z,4.17
2023-03-28T17:08:53.114Z,4.13
2023-03-28T17:11:21.937Z,5.10
2023-03-28T17:13:52.506Z,4.60
2023-03-28T17:16:20.791Z,5.07
2023-03-28T17:18:49.218Z,5.77
2023-03-28T17:21:19.379Z,5.47
2023-03-28T17:23:48.331Z,4.97
2023-03-28T17:26:17.276Z,5.13
2023-03-28T17:28:45.838Z,5.23
2023-03-28T17:31:15.032Z,5.50
2023-03-28T17:33:43.399Z,4.30
2023-03-28T17:36:21.725Z,3.83
2023-03-28T17:38:50.517Z,4.10
2023-03-28T17:41:18.764Z,3.80
2023-03-28T17:43:47.359Z,3.77
2023-03-28T17:46:15.585Z,3.90
2023-03-28T17:48:43.825Z,3.90
2023-03-28T17:51:12.627Z,3.87
2023-03-28T17:53:42.773Z,3.80
2023-03-28T17:56:11.741Z,4.00
2023-03-28T17:58:39.988Z,4.30
2023-03-28T18:01:10.331Z,4.20
2023-03-28T18:03:39.245Z,3.90
2023-03-28T18:06:08.249Z,4.80
2023-03-28T18:08:36.800Z,4.33
2023-03-28T18:11:07.748Z,4.83
2023-03-28T18:13:36.128Z,5.17
2023-03-28T18:16:05.365Z,4.80
2023-03-28T18:18:33.821Z,4.60
2023-03-28T18:21:02.138Z,3.97
2023-03-28T18:23:30.842Z,4.47
2023-03-28T18:25:59.398Z,3.70
2023-03-28T18:28:29.531Z,3.10
2023-03-28T18:30:58.112Z,3.13
2023-03-28T18:33:27.375Z,2.90
2023-03-28T18:35:55.566Z,3.30
2023-03-28T18:38:23.731Z,3.20
2023-03-28T18:40:53.368Z,3.50
2023-03-28T18:43:22.252Z,3.23
2023-03-28T18:45:55.499Z,3.73
2023-03-28T18:48:23.683Z,3.80
2023-03-28T18:50:51.834Z,3.90
2023-03-28T18:53:19.960Z,4.20
2023-03-28T18:55:48.246Z,4.30
2023-03-28T18:58:16.437Z,4.13
2023-03-28T19:00:44.685Z,4.33
2023-03-28T19:03:17.596Z,4.60
2023-03-28T19:05:46.145Z,4.80
2023-03-28T19:08:14.352Z,4.60
2023-03-28T19:10:46.859Z,4.30
2023-03-28T19:13:15.009Z,4.70
2023-03-28T19:15:43.201Z,4.77
2023-03-28T19:18:11.405Z,4.73
2023-03-28T19:20:40.985Z,4.27
2023-03-28T19:23:09.194Z,4.87
2023-03-28T19:25:37.724Z,5.23
2023-03-28T19:28:05.913Z,4.30
2023-03-28T19:30:34.132Z,5.60
2023-03-28T19:33:02.598Z,5.00
2023-03-28T19:35:32.073Z,5.00
2023-03-28T19:38:02.499Z,5.33
2023-03-28T19:40:30.841Z,3.90
2023-03-28T19:42:59.113Z,4.23
2023-03-28T19:45:27.478Z,3.97
2023-03-28T19:47:56.459Z,3.70
2023-03-28T19:50:24.887Z,3.20
2023-03-28T19:52:53.091Z,3.20
2023-03-28T19:55:22.614Z,2.60
2023-03-28T19:57:50.959Z,2.30
2023-03-28T20:00:21.275Z,2.07
2023-03-28T20:02:49.508Z,2.20
2023-03-28T20:05:17.743Z,2.07
2023-03-28T20:07:45.956Z,2.10
2023-03-28T20:10:14.326Z,2.07
2023-03-28T20:12:43.802Z,2.03
2023-03-28T20:15:12.301Z,2.30
2023-03-28T20:17:40.627Z,1.93
2023-03-28T20:20:10.240Z,2.40
2023-03-28T20:22:38.415Z,2.47
2023-03-28T20:25:07.081Z,2.53
2023-03-28T20:27:37.204Z,2.70
2023-03-28T20:30:07.801Z,3.33
2023-03-28T20:32:36.035Z,3.43
2023-03-28T20:35:04.321Z,2.87
2023-03-28T20:37:33.449Z,2.93
2023-03-28T20:40:10.220Z,3.20
2023-03-28T20:42:39.438Z,3.17
2023-03-28T20:45:13.837Z,3.00
2023-03-28T20:47:42.814Z,2.50
2023-03-28T20:50:11.556Z,2.50
2023-03-28T20:52:40.609Z,2.77
2023-03-28T20:55:10.152Z,2.77
2023-03-28T20:57:41.551Z,2.77
2023-03-28T21:00:14.591Z,2.53
2023-03-28T21:02:43.107Z,2.80
2023-03-28T21:05:12.425Z,2.50
2023-03-28T21:07:41.091Z,2.50
2023-03-28T21:10:09.908Z,2.50
2023-03-28T21:12:38.812Z,2.50
2023-03-28T21:15:09.050Z,2.60
2023-03-28T21:17:38.850Z,2.60
2023-03-28T21:20:07.947Z,2.63
2023-03-28T21:22:36.388Z,2.20
2023-03-28T21:25:04.537Z,2.20
2023-03-28T21:27:34.253Z,2.97
2023-03-28T21:30:06.892Z,2.87
2023-03-28T21:32:35.255Z,2.53
2023-03-28T21:35:05.302Z,2.70
2023-03-28T21:37:33.693Z,2.90
2023-03-28T21:40:01.860Z,2.60
2023-03-28T21:42:30.759Z,2.70
2023-03-28T21:44:59.211Z,2.57
2023-03-28T21:47:27.421Z,2.80
2023-03-28T21:49:55.666Z,3.03
2023-03-28T21:52:25.332Z,2.70
2023-03-28T21:54:53.490Z,2.83
2023-03-28T21:57:21.698Z,2.80
2023-03-28T21:59:50.062Z,2.40
2023-03-28T22:02:18.422Z,3.00
2023-03-28T22:04:47.131Z,2.77
2023-03-28T22:07:16.272Z,3.00
2023-03-28T22:09:45.777Z,2.90
2023-03-28T22:12:14.781Z,2.63
2023-03-28T22:14:43.150Z,2.80
2023-03-28T22:17:11.376Z,2.80
2023-03-28T22:19:39.539Z,2.63
2023-03-28T22:22:07.721Z,2.50
2023-03-28T22:24:36.205Z,3.00
2023-03-28T22:27:05.907Z,3.53
2023-03-28T22:29:34.185Z,2.77
2023-03-28T22:32:02.379Z,2.87
2023-03-28T22:36:27.057Z,3.10
2023-03-28T22:38:56.877Z,2.50
2023-03-28T22:41:25.058Z,2.80
2023-03-28T22:43:53.251Z,3.00
2023-03-28T22:46:22.094Z,3.17
2023-03-28T22:48:54.470Z,2.53
2023-03-28T22:51:25.240Z,2.90
2023-03-28T22:53:54.925Z,2.53
2023-03-28T22:56:25.345Z,2.80
2023-03-28T22:58:53.934Z,2.90
2023-03-28T23:01:25.901Z,2.50
2023-03-28T23:03:54.273Z,2.77
2023-03-28T23:06:22.469Z,3.00
2023-03-28T23:08:50.639Z,3.03
2023-03-28T23:11:20.207Z,2.50
2023-03-28T23:13:48.407Z,3.10
2023-03-28T23:16:16.979Z,2.80
2023-03-28T23:18:45.422Z,3.30
2023-03-28T23:21:13.637Z,3.00
2023-03-28T23:23:42.530Z,3.10
2023-03-28T23:26:10.908Z,2.80
2023-03-28T23:28:40.429Z,2.80
2023-03-28T23:31:08.830Z,2.53
2023-03-28T23:33:37.110Z,3.30
2023-03-28T23:36:06.331Z,2.83
2023-03-28T23:38:35.304Z,3.00
2023-03-28T23:41:03.744Z,3.00
2023-03-28T23:43:32.105Z,2.77
2023-03-28T23:46:04.075Z,3.17
2023-03-28T23:48:32.354Z,3.10
2023-03-28T23:51:01.922Z,2.43
2023-03-28T23:53:30.377Z,2.73
2023-03-28T23:55:58.676Z,2.70
2023-03-28T23:58:26.874Z,2.73
